createdAt,value
2022-11-17T00:02:13.725Z,98814.81
2022-11-17T00:04:41.626Z,98786.34
2022-11-17T00:07:09.371Z,98788.22
2022-11-17T00:09:37.359Z,98786.69
2022-11-17T00:12:23.205Z,98774.06
2022-11-17T00:14:52.536Z,98767.28
2022-11-17T00:17:20.500Z,98757.34
2022-11-17T00:20:05.801Z,98760.09
2022-11-17T00:22:33.801Z,98750.19
2022-11-17T00:25:01.716Z,98738.22
2022-11-17T00:27:29.724Z,98740.28
2022-11-17T00:29:58.862Z,98729.84
2022-11-17T00:32:43.279Z,98726.44
2022-11-17T00:35:11.079Z,98726.44
2022-11-17T00:38:02.184Z,98728.97
2022-11-17T00:40:30.481Z,98715.50
2022-11-17T00:42:58.299Z,98703.72
2022-11-17T00:45:27.518Z,98702.69
2022-11-17T00:47:55.451Z,98709.00
2022-11-17T00:50:24.150Z,98706.44
2022-11-17T00:52:52.061Z,98697.38
2022-11-17T00:55:20.067Z,98689.38
2022-11-17T00:57:47.890Z,98685.59
2022-11-17T01:00:16.156Z,98685.78
2022-11-17T01:02:45.325Z,98679.28
2022-11-17T01:05:13.205Z,98670.63
2022-11-17T01:07:41.087Z,98664.66
2022-11-17T01:10:10.022Z,98667.38
2022-11-17T01:12:37.804Z,98662.09
2022-11-17T01:15:06.071Z,98661.25
2022-11-17T01:17:33.901Z,98657.84
2022-11-17T01:20:03.578Z,98660.97
2022-11-17T01:22:31.415Z,98661.16
2022-11-17T01:24:59.169Z,98645.78
2022-11-17T01:27:26.931Z,98644.25
2022-11-17T01:29:55.064Z,98638.16
2022-11-17T01:32:23.019Z,98634.56
2022-11-17T01:34:50.824Z,98634.75
2022-11-17T01:37:22.902Z,98624.84
2022-11-17T01:39:51.393Z,98603.34
2022-11-17T01:42:22.717Z,98595.81
2022-11-17T01:45:01.893Z,98579.41
2022-11-17T01:47:36.448Z,98578.75
2022-11-17T01:50:11.523Z,98579.59
2022-11-17T01:52:41.950Z,98572.25
2022-11-17T01:55:11.976Z,98565.06
2022-11-17T01:57:44.856Z,98552.47
2022-11-17T02:00:13.028Z,98547.81
2022-11-17T02:02:43.175Z,98550.66
2022-11-17T02:05:28.680Z,98542.75
2022-11-17T02:08:00.750Z,98548.41
2022-11-17T02:10:32.562Z,98553.78
2022-11-17T02:13:01.661Z,98551.31
2022-11-17T02:15:30.465Z,98539.53
2022-11-17T02:18:00.374Z,98545.00
2022-11-17T02:20:44.707Z,98540.03
2022-11-17T02:23:48.696Z,98530.31
2022-11-17T02:26:31.836Z,98533.03
2022-11-17T02:29:04.835Z,98530.56
2022-11-17T02:31:41.111Z,98520.59
2022-11-17T02:34:23.849Z,98501.78
2022-11-17T02:36:59.052Z,98512.69
2022-11-17T02:39:34.272Z,98512.50
2022-11-17T02:42:09.799Z,98527.88
2022-11-17T02:44:44.860Z,98509.56
2022-11-17T02:47:18.794Z,98508.75
2022-11-17T02:49:51.408Z,98510.63
2022-11-17T02:52:21.319Z,98493.38
2022-11-17T02:54:49.201Z,98509.97
2022-11-17T02:57:32.460Z,98489.41
2022-11-17T03:00:05.774Z,98493.16
2022-11-17T03:02:54.521Z,98483.50
2022-11-17T03:05:30.901Z,98472.56
2022-11-17T03:08:09.968Z,98475.28
2022-11-17T03:10:49.921Z,98474.03
2022-11-17T03:13:25.515Z,98469.16
2022-11-17T03:15:57.798Z,98464.53
2022-11-17T03:18:31.058Z,98464.72
2022-11-17T03:21:09.833Z,98446.44
2022-11-17T03:23:43.567Z,98460.28
2022-11-17T03:26:16.117Z,98451.81
2022-11-17T03:28:47.600Z,98450.13
2022-11-17T03:31:18.499Z,98450.13
2022-11-17T03:33:49.896Z,98447.22
2022-11-17T03:36:21.334Z,98436.47
2022-11-17T03:38:56.761Z,98434.59
2022-11-17T03:41:25.348Z,98433.91
2022-11-17T03:43:55.664Z,98434.75
2022-11-17T03:46:27.691Z,98425.53
2022-11-17T03:49:01.286Z,98433.91
2022-11-17T03:51:33.142Z,98416.50
2022-11-17T03:54:02.072Z,98423.84
2022-11-17T03:56:39.475Z,98408.28
2022-11-17T03:59:15.188Z,98408.09
2022-11-17T04:01:45.098Z,98408.97
2022-11-17T04:04:16.214Z,98411.22
2022-11-17T04:06:44.139Z,98397.38
2022-11-17T04:09:11.940Z,98403.69
2022-11-17T04:11:57.224Z,98403.50
2022-11-17T04:14:42.551Z,98399.91
2022-11-17T04:17:11.944Z,98397.19
2022-11-17T04:19:39.745Z,98381.44
2022-11-17T04:22:07.610Z,98375.31
2022-11-17T04:24:35.384Z,98377.22
2022-11-17T04:27:20.864Z,98372.59
2022-11-17T04:29:48.710Z,98379.09
2022-11-17T04:32:17.895Z,98386.69
2022-11-17T04:34:45.700Z,98374.47
2022-11-17T04:37:17.604Z,98366.47
2022-11-17T04:39:45.880Z,98367.31
2022-11-17T04:42:12.895Z,98375.13
2022-11-17T04:44:41.110Z,98370.72
2022-11-17T04:47:08.900Z,98378.06
2022-11-17T04:49:38.075Z,98375.31
2022-11-17T04:52:06.126Z,98367.13
2022-11-17T04:54:34.033Z,98365.44
2022-11-17T04:57:01.779Z,98351.94
2022-11-17T04:59:29.639Z,98353.84
2022-11-17T05:02:02.533Z,98353.00
2022-11-17T05:04:49.998Z,98355.53
2022-11-17T05:07:19.407Z,98350.06
2022-11-17T05:09:47.222Z,98358.25
2022-11-17T05:12:32.656Z,98354.50
2022-11-17T05:15:00.488Z,98351.78
2022-11-17T05:17:27.317Z,98361.66
2022-11-17T05:19:55.224Z,98364.56
2022-11-17T05:22:42.650Z,98367.13
2022-11-17T05:25:10.982Z,98345.63
2022-11-17T05:27:39.028Z,98349.41
2022-11-17T05:30:08.677Z,98348.38
2022-11-17T05:32:36.583Z,98340.56
2022-11-17T05:35:04.677Z,98346.03
2022-11-17T05:37:33.827Z,98346.88
2022-11-17T05:40:01.680Z,98347.06
2022-11-17T05:42:29.434Z,98359.03
2022-11-17T05:44:57.287Z,98345.38
2022-11-17T05:47:25.232Z,98350.00
2022-11-17T05:49:53.050Z,98354.59
2022-11-17T05:52:21.453Z,98349.16
2022-11-17T05:54:50.806Z,98350.00
2022-11-17T05:57:28.197Z,98356.31
2022-11-17T06:00:00.193Z,98360.25
2022-11-17T06:02:30.930Z,98364.31
2022-11-17T06:04:58.765Z,98360.19
2022-11-17T06:07:27.440Z,98360.66
2022-11-17T06:09:57.633Z,98365.91
2022-11-17T06:12:25.520Z,98363.56
2022-11-17T06:14:53.379Z,98360.19
2022-11-17T06:17:24.886Z,98378.25
2022-11-17T06:19:57.425Z,98377.22
2022-11-17T06:22:27.687Z,98372.81
2022-11-17T06:24:57.927Z,98377.88
2022-11-17T06:27:26.596Z,98394.47
2022-11-17T06:29:56.324Z,98383.53
2022-11-17T06:32:24.340Z,98387.97
2022-11-17T06:34:56.107Z,98383.31
2022-11-17T06:37:24.668Z,98392.59
2022-11-17T06:39:52.450Z,98385.88
2022-11-17T06:42:41.873Z,98388.44
2022-11-17T06:45:10.459Z,98388.44
2022-11-17T06:47:38.467Z,98388.25
2022-11-17T06:50:07.502Z,98387.88
2022-11-17T06:52:35.342Z,98397.72
2022-11-17T06:55:03.457Z,98396.69
2022-11-17T06:57:32.798Z,98399.06
2022-11-17T07:00:00.673Z,98398.03
2022-11-17T07:02:28.504Z,98402.66
2022-11-17T07:04:56.426Z,98404.34
2022-11-17T07:07:24.348Z,98396.81
2022-11-17T07:09:52.299Z,98402.28
2022-11-17T07:12:20.302Z,98400.56
2022-11-17T07:14:49.596Z,98393.00
2022-11-17T07:17:17.448Z,98401.22
2022-11-17T07:19:45.299Z,98399.31
2022-11-17T07:22:13.113Z,98403.09
2022-11-17T07:24:41.366Z,98403.75
2022-11-17T07:27:09.227Z,98405.66
2022-11-17T07:29:37.088Z,98409.22
2022-11-17T07:32:06.783Z,98419.97
2022-11-17T07:34:34.659Z,98409.03
2022-11-17T07:37:02.442Z,98414.50
2022-11-17T07:39:30.310Z,98416.88
2022-11-17T07:41:58.130Z,98418.56
2022-11-17T07:44:26.134Z,98418.56
2022-11-17T07:46:54.485Z,98422.97
2022-11-17T07:49:23.897Z,98427.22
2022-11-17T07:51:51.754Z,98442.59
2022-11-17T07:54:19.703Z,98456.25
2022-11-17T07:56:48.563Z,98488.84
2022-11-17T07:59:21.192Z,98489.53
2022-11-17T08:01:49.581Z,98478.59
2022-11-17T08:04:17.433Z,98483.00
2022-11-17T08:06:46.714Z,98492.25
2022-11-17T08:09:15.804Z,98496.03
2022-11-17T08:11:44.166Z,98495.34
2022-11-17T08:14:12.047Z,98505.25
2022-11-17T08:16:39.946Z,98502.53
2022-11-17T08:19:07.871Z,98512.59
2022-11-17T08:21:37.862Z,98521.47
2022-11-17T08:24:07.419Z,98511.56
2022-11-17T08:26:35.255Z,98510.53
2022-11-17T08:29:03.115Z,98518.75
2022-11-17T08:31:31.144Z,98525.88
2022-11-17T08:33:59.048Z,98517.66
2022-11-17T08:36:26.868Z,98532.19
2022-11-17T08:38:54.720Z,98516.63
2022-11-17T08:41:23.900Z,98522.78
2022-11-17T08:43:51.929Z,98524.66
2022-11-17T08:46:19.804Z,98526.53
2022-11-17T08:48:51.031Z,98524.66
2022-11-17T08:51:23.541Z,98524.47
2022-11-17T08:53:51.381Z,98534.38
2022-11-17T08:56:19.423Z,98535.22
2022-11-17T08:58:49.078Z,98541.38
2022-11-17T09:01:17.981Z,98537.78
2022-11-17T09:03:48.167Z,98549.34
2022-11-17T09:06:17.483Z,98547.28
2022-11-17T09:08:47.022Z,98553.59
2022-11-17T09:11:16.538Z,98547.09
2022-11-17T09:13:45.736Z,98540.41
2022-11-17T09:16:16.257Z,98555.78
2022-11-17T09:18:44.687Z,98562.06
2022-11-17T09:21:16.059Z,98558.13
2022-11-17T09:23:44.150Z,98551.81
2022-11-17T09:26:13.995Z,98576.03
2022-11-17T09:28:42.288Z,98583.41
2022-11-17T09:31:11.687Z,98584.06
2022-11-17T09:33:40.997Z,98589.31
2022-11-17T09:36:09.637Z,98601.31
2022-11-17T09:38:38.795Z,98605.53
2022-11-17T09:41:29.162Z,98598.38
2022-11-17T09:44:12.080Z,98611.50
2022-11-17T09:46:55.315Z,98599.53
2022-11-17T09:49:43.388Z,98610.75
2022-11-17T09:52:19.231Z,98604.94
2022-11-17T09:54:54.067Z,98603.50
2022-11-17T09:57:29.954Z,98610.50
2022-11-17T10:00:30.827Z,98617.47
2022-11-17T10:02:59.068Z,98606.53
2022-11-17T10:05:31.693Z,98611.59
2022-11-17T10:08:06.208Z,98610.75
2022-11-17T10:10:38.818Z,98615.88
2022-11-17T10:13:14.316Z,98618.59
2022-11-17T10:15:46.868Z,98622.00
2022-11-17T10:18:16.787Z,98619.44
2022-11-17T10:20:46.943Z,98629.19
2022-11-17T10:23:18.382Z,98639.91
2022-11-17T10:25:47.353Z,98630.84
2022-11-17T10:28:27.235Z,98630.66
2022-11-17T10:30:57.769Z,98639.91
2022-11-17T10:33:36.621Z,98649.63
2022-11-17T10:36:09.068Z,98651.50
2022-11-17T10:38:36.926Z,98651.91
2022-11-17T10:41:05.025Z,98649.81
2022-11-17T10:43:36.276Z,98638.69
2022-11-17T10:46:07.464Z,98642.09
2022-11-17T10:48:37.131Z,98649.25
2022-11-17T10:51:22.340Z,98642.75
2022-11-17T10:54:03.369Z,98641.69
2022-11-17T10:56:33.762Z,98642.53
2022-11-17T10:59:12.669Z,98649.53
2022-11-17T11:01:42.305Z,98650.56
2022-11-17T11:04:29.615Z,98650.38
2022-11-17T11:07:18.665Z,98663.03
2022-11-17T11:09:54.091Z,98658.41
2022-11-17T11:12:33.136Z,98658.03
2022-11-17T11:15:09.308Z,98658.69
2022-11-17T11:17:39.172Z,98657.63
2022-11-17T11:20:14.995Z,98660.69
2022-11-17T11:22:53.540Z,98658.56
2022-11-17T11:25:34.611Z,98660.94
2022-11-17T11:28:19.924Z,98665.19
2022-11-17T11:31:00.035Z,98666.69
2022-11-17T11:33:36.383Z,98669.22
2022-11-17T11:36:21.207Z,98667.16
2022-11-17T11:38:59.228Z,98677.91
2022-11-17T11:41:54.037Z,98680.44
2022-11-17T11:44:41.705Z,98674.16
2022-11-17T11:47:28.914Z,98684.88
2022-11-17T11:50:01.344Z,98682.16
2022-11-17T11:52:35.860Z,98692.25
2022-11-17T11:55:08.374Z,98679.22
2022-11-17T11:57:40.247Z,98689.50
2022-11-17T12:00:34.255Z,98693.31
2022-11-17T12:03:12.907Z,98690.16
2022-11-17T12:05:53.369Z,98691.03
2022-11-17T12:08:30.818Z,98696.31
2022-11-17T12:11:24.321Z,98708.97
2022-11-17T12:13:54.466Z,98696.31
2022-11-17T12:16:29.276Z,98703.09
2022-11-17T12:18:57.152Z,98707.94
2022-11-17T12:21:26.291Z,98703.94
2022-11-17T12:24:19.058Z,98697.63
2022-11-17T12:26:48.293Z,98705.81
2022-11-17T12:29:31.780Z,98703.56
2022-11-17T12:32:01.758Z,98702.72
2022-11-17T12:34:32.327Z,98711.78
2022-11-17T12:37:31.590Z,98706.91
2022-11-17T12:40:04.689Z,98707.16
2022-11-17T12:42:37.905Z,98722.56
2022-11-17T12:45:11.103Z,98705.09
2022-11-17T12:47:41.858Z,98718.78
2022-11-17T12:50:31.838Z,98712.25
2022-11-17T12:53:44.692Z,98714.72
2022-11-17T12:56:38.071Z,98717.25
2022-11-17T12:59:44.667Z,98711.41
2022-11-17T13:02:27.740Z,98716.91
2022-11-17T13:04:58.863Z,98717.38
2022-11-17T13:07:27.707Z,98719.16
2022-11-17T13:09:57.885Z,98716.91
2022-11-17T13:12:28.695Z,98716.69
2022-11-17T13:14:59.085Z,98723.00
2022-11-17T13:17:29.731Z,98727.44
2022-11-17T13:20:02.821Z,98729.16
2022-11-17T13:22:31.403Z,98720.06
2022-11-17T13:24:59.795Z,98720.06
2022-11-17T13:27:29.728Z,98716.31
2022-11-17T13:30:17.299Z,98726.22
2022-11-17T13:32:45.227Z,98726.41
2022-11-17T13:35:24.520Z,98717.81
2022-11-17T13:38:03.419Z,98726.88
2022-11-17T13:40:32.826Z,98727.94
2022-11-17T13:43:01.901Z,98726.03
2022-11-17T13:45:31.229Z,98719.53
2022-11-17T13:48:00.304Z,98734.91
2022-11-17T13:50:38.148Z,98726.47
2022-11-17T13:53:19.765Z,98727.53
2022-11-17T13:55:48.131Z,98737.66
2022-11-17T13:58:34.938Z,98736.41
2022-11-17T14:01:04.394Z,98728.19
2022-11-17T14:03:37.928Z,98726.31
2022-11-17T14:06:08.730Z,98730.94
2022-11-17T14:08:38.141Z,98738.97
2022-11-17T14:11:09.153Z,98739.81
2022-11-17T14:13:40.253Z,98746.13
2022-11-17T14:16:22.303Z,98736.88
2022-11-17T14:18:59.173Z,98743.41
2022-11-17T14:21:27.755Z,98742.53
2022-11-17T14:24:05.432Z,98743.03
2022-11-17T14:26:33.462Z,98741.50
2022-11-17T14:29:03.041Z,98743.22
2022-11-17T14:31:33.373Z,98746.59
2022-11-17T14:34:03.494Z,98748.69
2022-11-17T14:36:33.482Z,98754.63
2022-11-17T14:39:02.305Z,98750.00
2022-11-17T14:41:30.548Z,98751.88
2022-11-17T14:43:58.444Z,98750.00
2022-11-17T14:46:27.692Z,98750.66
2022-11-17T14:48:56.986Z,98745.19
2022-11-17T14:51:25.665Z,98745.38
2022-11-17T14:53:54.222Z,98751.69
2022-11-17T14:56:23.639Z,98755.94
2022-11-17T14:58:55.824Z,98752.19
2022-11-17T15:01:28.285Z,98760.75
2022-11-17T15:03:59.808Z,98758.88
2022-11-17T15:06:29.151Z,98762.28
2022-11-17T15:08:58.622Z,98759.53
2022-11-17T15:11:27.883Z,98767.94
2022-11-17T15:13:55.860Z,98757.00
2022-11-17T15:16:23.758Z,98763.31
2022-11-17T15:18:51.925Z,98760.56
2022-11-17T15:21:21.269Z,98765.03
2022-11-17T15:23:49.086Z,98770.69
2022-11-17T15:26:18.936Z,98767.75
2022-11-17T15:28:47.149Z,98775.31
2022-11-17T15:31:16.484Z,98776.16
2022-11-17T15:33:45.760Z,98776.16
2022-11-17T15:36:15.731Z,98795.16
2022-11-17T15:38:45.176Z,98789.69
2022-11-17T15:41:14.594Z,98793.44
2022-11-17T15:43:44.573Z,98792.59
2022-11-17T15:46:14.149Z,98794.50
2022-11-17T15:48:43.443Z,98793.63
2022-11-17T15:51:13.090Z,98803.75
2022-11-17T15:53:41.445Z,98804.78
2022-11-17T15:56:12.694Z,98801.84
2022-11-17T15:58:42.182Z,98814.88
2022-11-17T16:01:15.080Z,98815.72
2022-11-17T16:03:44.621Z,98816.78
2022-11-17T16:06:13.622Z,98809.59
2022-11-17T16:08:42.138Z,98820.75
2022-11-17T16:11:12.487Z,98826.88
2022-11-17T16:13:40.497Z,98832.56
2022-11-17T16:16:09.489Z,98836.97
2022-11-17T16:18:38.676Z,98833.59
2022-11-17T16:21:08.540Z,98833.41
2022-11-17T16:23:41.382Z,98835.09
2022-11-17T16:26:09.584Z,98837.84
2022-11-17T16:28:39.047Z,98837.75
2022-11-17T16:31:14.784Z,98846.44
2022-11-17T16:33:47.409Z,98838.59
2022-11-17T16:36:15.440Z,98847.00
2022-11-17T16:38:59.823Z,98849.56
2022-11-17T16:41:30.045Z,98840.47
2022-11-17T16:43:59.373Z,98847.66
2022-11-17T16:46:29.976Z,98841.34
2022-11-17T16:49:01.036Z,98852.28
2022-11-17T16:51:29.202Z,98848.69
2022-11-17T16:53:59.466Z,98856.72
2022-11-17T16:56:27.576Z,98856.91
2022-11-17T16:58:55.711Z,98861.34
2022-11-17T17:01:27.437Z,98865.63
2022-11-17T17:03:59.668Z,98866.66
2022-11-17T17:06:28.099Z,98863.44
2022-11-17T17:08:56.432Z,98866.00
2022-11-17T17:11:24.935Z,98864.28
2022-11-17T17:13:53.323Z,98868.72
2022-11-17T17:16:21.893Z,98867.88
2022-11-17T17:18:55.889Z,98872.13
2022-11-17T17:21:24.368Z,98867.88
2022-11-17T17:23:52.341Z,98868.91
2022-11-17T17:26:22.673Z,98880.72
2022-11-17T17:28:52.003Z,98873.53
2022-11-17T17:31:22.363Z,98873.75
2022-11-17T17:33:52.291Z,98873.75
2022-11-17T17:36:21.782Z,98884.88
2022-11-17T17:38:54.939Z,98889.69
2022-11-17T17:41:25.586Z,98883.34
2022-11-17T17:43:58.661Z,98889.69
2022-11-17T17:46:29.644Z,98893.00
2022-11-17T17:48:59.343Z,98894.69
2022-11-17T17:51:30.062Z,98899.50
2022-11-17T17:54:01.849Z,98901.41
2022-11-17T17:56:31.406Z,98913.56
2022-11-17T17:58:59.527Z,98915.63
2022-11-17T18:01:29.112Z,98918.38
2022-11-17T18:04:04.811Z,98920.25
2022-11-17T18:06:36.808Z,98919.63
2022-11-17T18:09:05.672Z,98920.81
2022-11-17T18:11:34.089Z,98921.84
2022-11-17T18:14:01.972Z,98915.53
2022-11-17T18:16:31.983Z,98923.75
2022-11-17T18:19:02.569Z,98921.19
2022-11-17T18:21:30.807Z,98923.28
2022-11-17T18:24:00.674Z,98919.69
2022-11-17T18:26:30.179Z,98928.75
2022-11-17T18:28:59.699Z,98935.25
2022-11-17T18:31:29.150Z,98933.56
2022-11-17T18:33:58.393Z,98927.22
2022-11-17T18:36:28.326Z,98938.19
2022-11-17T18:38:58.417Z,98938.34
2022-11-17T18:41:27.036Z,98942.97
2022-11-17T18:43:55.854Z,98939.56
2022-11-17T18:46:26.328Z,98938.53
2022-11-17T18:48:54.209Z,98938.94
2022-11-17T18:51:23.834Z,98940.59
2022-11-17T18:53:55.101Z,98945.25
2022-11-17T18:56:25.353Z,98954.50
2022-11-17T18:58:53.580Z,98952.97
2022-11-17T19:01:23.334Z,98951.94
2022-11-17T19:03:53.455Z,98959.47
2022-11-17T19:06:22.739Z,98964.09
2022-11-17T19:08:51.373Z,98963.25
2022-11-17T19:11:22.522Z,98962.38
2022-11-17T19:13:50.939Z,98965.31
2022-11-17T19:16:21.128Z,98967.41
2022-11-17T19:18:50.769Z,98967.41
2022-11-17T19:21:20.333Z,98973.91
2022-11-17T19:23:52.215Z,98973.03
2022-11-17T19:26:24.023Z,98979.72
2022-11-17T19:28:55.956Z,98978.53
2022-11-17T19:31:24.090Z,98981.78
2022-11-17T19:33:52.346Z,98983.50
2022-11-17T19:36:21.955Z,98994.44
2022-11-17T19:38:51.272Z,98989.19
2022-11-17T19:41:24.238Z,98996.53
2022-11-17T19:43:53.369Z,98998.75
2022-11-17T19:46:21.851Z,99002.88
2022-11-17T19:48:49.866Z,99005.44
2022-11-17T19:51:19.949Z,99009.03
2022-11-17T19:53:48.396Z,99018.47
2022-11-17T19:56:16.889Z,99016.78
2022-11-17T19:58:47.095Z,99022.25
2022-11-17T20:01:16.959Z,99028.91
2022-11-17T20:03:46.221Z,99032.84
2022-11-17T20:06:16.053Z,99033.72
2022-11-17T20:08:44.364Z,99040.41
2022-11-17T20:11:14.021Z,99045.03
2022-11-17T20:13:42.434Z,99044.34
2022-11-17T20:16:15.838Z,99046.06
2022-11-17T20:18:44.570Z,99049.16
2022-11-17T20:21:13.932Z,99060.94
2022-11-17T20:23:43.517Z,99058.38
2022-11-17T20:26:13.839Z,99058.38
2022-11-17T20:28:42.323Z,99062.16
2022-11-17T20:31:13.292Z,99067.63
2022-11-17T20:33:42.828Z,99068.47
2022-11-17T20:36:13.299Z,99063.84
2022-11-17T20:38:41.242Z,99064.22
2022-11-17T20:41:09.844Z,99063.16
2022-11-17T20:43:38.001Z,99076.03
2022-11-17T20:46:06.111Z,99065.91
2022-11-17T20:48:36.192Z,99075.81
2022-11-17T20:51:06.810Z,99075.81
2022-11-17T20:53:35.286Z,99085.06
2022-11-17T20:56:05.981Z,99084.25
2022-11-17T20:58:34.384Z,99086.97
2022-11-17T21:01:09.424Z,99093.25
2022-11-17T21:03:38.978Z,99094.31
2022-11-17T21:06:07.808Z,99094.50
2022-11-17T21:08:37.888Z,99101.69
2022-11-17T21:11:07.676Z,99101.00
2022-11-17T21:13:36.893Z,99101.00
2022-11-17T21:16:06.906Z,99104.75
2022-11-17T21:18:35.843Z,99112.28
2022-11-17T21:21:08.965Z,99106.81
2022-11-17T21:23:37.521Z,99115.38
2022-11-17T21:26:06.169Z,99108.22
2022-11-17T21:28:34.381Z,99111.25
2022-11-17T21:31:07.893Z,99120.19
2022-11-17T21:33:35.918Z,99123.38
2022-11-17T21:36:07.385Z,99125.25
2022-11-17T21:38:35.471Z,99124.78
2022-11-17T21:41:04.289Z,99122.22
2022-11-17T21:43:32.887Z,99126.16
2022-11-17T21:46:04.600Z,99136.44
2022-11-17T21:48:32.480Z,99127.88
2022-11-17T21:51:00.777Z,99130.78
2022-11-17T21:53:30.883Z,99128.25
2022-11-17T21:56:02.440Z,99134.91
2022-11-17T21:58:31.069Z,99131.66
2022-11-17T22:00:58.969Z,99125.72
2022-11-17T22:03:27.818Z,99124.16
2022-11-17T22:06:00.984Z,99120.75
2022-11-17T22:08:31.505Z,99127.44
2022-11-17T22:11:04.210Z,99132.91
2022-11-17T22:13:32.227Z,99133.78
2022-11-17T22:16:05.139Z,99137.34
2022-11-17T22:18:32.830Z,99139.75
2022-11-17T22:21:00.699Z,99140.59
2022-11-17T22:23:29.372Z,99138.56
2022-11-17T22:26:00.146Z,99140.44
2022-11-17T22:28:28.646Z,99146.22
2022-11-17T22:30:56.633Z,99146.41
2022-11-17T22:33:24.655Z,99153.94
2022-11-17T22:35:52.508Z,99165.88
2022-11-17T22:38:20.606Z,99166.75
2022-11-17T22:40:48.569Z,99167.75
2022-11-17T22:43:17.742Z,99180.56
2022-11-17T22:45:45.507Z,99178.84
2022-11-17T22:48:13.368Z,99174.41
2022-11-17T22:50:41.188Z,99178.84
2022-11-17T22:53:08.983Z,99171.69
2022-11-17T22:55:37.897Z,99176.28
2022-11-17T22:58:05.912Z,99176.28
2022-11-17T23:00:35.082Z,99171.69
2022-11-17T23:03:03.019Z,99176.28
2022-11-17T23:05:30.871Z,99185.34
2022-11-17T23:07:58.763Z,99181.75
2022-11-17T23:10:26.577Z,99185.34
2022-11-17T23:12:54.842Z,99183.47
2022-11-17T23:15:22.866Z,99185.19
2022-11-17T23:17:52.135Z,99186.03
2022-11-17T23:20:20.221Z,99190.66
2022-11-17T23:22:48.147Z,99187.06
2022-11-17T23:25:16.031Z,99187.91
2022-11-17T23:27:43.907Z,99189.63
2022-11-17T23:30:14.235Z,99190.47
2022-11-17T23:32:42.165Z,99196.97
2022-11-17T23:35:11.661Z,99204.84
2022-11-17T23:37:39.635Z,99202.25
2022-11-17T23:40:08.561Z,99208.59
2022-11-17T23:42:42.722Z,99205.00
2022-11-17T23:45:12.721Z,99207.72
2022-11-17T23:47:40.776Z,99203.97
2022-11-17T23:50:09.642Z,99202.09
2022-11-17T23:52:38.800Z,99206.72
2022-11-17T23:55:07.548Z,99219.50
2022-11-17T23:57:35.355Z,99226.00
